Time;durP1;ratioP1;P1;durP2;ratioP2;P2;SDS_P1;SDS_P2;PMS_P1;PMS_P2;Temp;Humidity;BMP_temperature;BMP_pressure;BME280_temperature;BME280_humidity;BME280_pressure;Samples;Min_cycle;Max_cycle;Signal;HPM_P1;HPM_P2
2023/11/11 00:01:10;;;;;;;9.00;2.92;;;;;;;11.75;78.28;100157.38;4934042;29;20046;-61
2023/11/11 00:03:37;;;;;;;13.35;3.60;;;;;;;11.73;76.08;100161.63;4934864;29;20078;-62
2023/11/11 00:06:05;;;;;;;13.77;3.05;;;;;;;11.72;78.25;100166.31;4933199;29;20047;-62
2023/11/11 00:08:34;;;;;;;12.07;3.30;;;;;;;11.72;77.55;100171.03;4948926;29;20074;-64
2023/11/11 00:11:03;;;;;;;10.00;2.67;;;;;;;12.00;77.51;100172.94;4934434;29;20436;-63
2023/11/11 00:13:30;;;;;;;9.43;2.50;;;;;;;11.51;77.43;100178.41;4934313;29;20067;-63
2023/11/11 00:15:57;;;;;;;10.23;2.95;;;;;;;11.69;80.02;100180.78;4934555;29;20326;-65
2023/11/11 00:18:25;;;;;;;11.25;3.00;;;;;;;11.64;79.01;100177.38;4934182;29;20067;-61
2023/11/11 00:20:53;;;;;;;9.93;2.70;;;;;;;11.82;78.49;100167.91;4934546;29;20047;-62
2023/11/11 00:23:20;;;;;;;7.70;2.63;;;;;;;11.76;79.71;100175.56;4934392;29;20059;-61
2023/11/11 00:25:48;;;;;;;9.23;2.60;;;;;;;11.51;77.21;100168.19;4965274;28;20127;-61
2023/11/11 00:28:16;;;;;;;12.80;2.90;;;;;;;12.19;77.03;100167.75;4933461;29;20039;-61
2023/11/11 00:30:44;;;;;;;6.75;2.47;;;;;;;12.20;76.17;100166.59;4948645;29;20062;-61
2023/11/11 00:33:13;;;;;;;8.88;3.13;;;;;;;12.38;75.98;100161.75;4949405;29;20067;-62
2023/11/11 00:35:40;;;;;;;9.63;2.67;;;;;;;12.15;76.31;100169.56;4934733;29;20048;-60
2023/11/11 00:38:09;;;;;;;11.68;2.50;;;;;;;12.57;74.87;100159.28;4947161;29;20057;-61
2023/11/11 00:40:39;;;;;;;14.43;3.20;;;;;;;12.41;74.80;100161.09;4940420;28;20052;-61
2023/11/11 00:43:08;;;;;;;13.40;2.85;;;;;;;12.61;73.85;100162.19;4964961;28;20055;-61
2023/11/11 00:45:35;;;;;;;11.38;3.03;;;;;;;12.07;73.43;100173.22;4933521;29;20143;-61
2023/11/11 00:48:02;;;;;;;11.70;3.30;;;;;;;12.31;75.52;100172.53;4947505;29;20082;-61
2023/11/11 00:50:30;;;;;;;11.60;2.85;;;;;;;12.34;73.90;100169.91;4933709;29;20062;-61
2023/11/11 00:52:59;;;;;;;9.43;2.72;;;;;;;11.63;77.18;100179.31;4933840;29;20051;-61
2023/11/11 00:55:27;;;;;;;13.55;2.70;;;;;;;11.75;78.02;100179.44;4947367;29;20053;-60
2023/11/11 00:57:54;;;;;;;7.47;2.38;;;;;;;11.70;78.85;100178.84;4947997;29;20058;-61
2023/11/11 01:00:21;;;;;;;10.35;3.00;;;;;;;12.08;76.14;100180.34;4932587;29;20048;-61
2023/11/11 01:02:51;;;;;;;7.88;2.55;;;;;;;12.19;75.87;100173.28;4933154;29;20052;-61
2023/11/11 01:05:20;;;;;;;9.55;2.40;;;;;;;12.59;74.92;100170.03;4931809;29;20059;-61
2023/11/11 01:07:47;;;;;;;9.05;2.45;;;;;;;12.29;74.70;100170.09;4932839;29;20062;-61
2023/11/11 01:10:14;;;;;;;9.57;2.60;;;;;;;12.28;75.54;100171.28;4960807;28;20330;-61
2023/11/11 01:12:41;;;;;;;9.98;2.65;;;;;;;12.34;75.51;100178.19;4914727;29;20052;-61
2023/11/11 01:15:09;;;;;;;9.68;2.80;;;;;;;12.62;74.74;100170.16;4929499;29;20060;-63
2023/11/11 01:17:37;;;;;;;9.00;2.20;;;;;;;12.80;73.65;100176.28;4933225;29;20047;-62
2023/11/11 01:20:05;;;;;;;10.82;3.05;;;;;;;12.73;74.16;100178.78;4963397;28;20059;-60
2023/11/11 01:22:32;;;;;;;8.98;2.70;;;;;;;12.84;73.21;100180.00;4963706;28;20043;-62
2023/11/11 01:25:00;;;;;;;9.30;2.45;;;;;;;12.73;73.20;100187.91;4948132;29;20074;-60
2023/11/11 01:27:31;;;;;;;11.95;2.83;;;;;;;12.57;73.30;100186.13;4948612;28;20665;-61
2023/11/11 01:29:59;;;;;;;7.43;2.35;;;;;;;12.49;73.61;100179.53;4947600;29;20058;-61
2023/11/11 01:32:26;;;;;;;13.25;2.83;;;;;;;12.60;74.08;100180.72;4964175;28;20050;-60
2023/11/11 01:34:54;;;;;;;13.68;2.85;;;;;;;12.71;73.78;100187.44;4963669;28;20060;-60
2023/11/11 01:37:21;;;;;;;9.30;2.28;;;;;;;12.70;73.42;100187.78;4939974;29;20685;-61
2023/11/11 01:39:48;;;;;;;9.73;2.50;;;;;;;12.63;73.45;100190.28;4945117;29;20058;-61
2023/11/11 01:42:15;;;;;;;7.78;2.40;;;;;;;12.70;73.81;100185.00;4933946;29;20055;-61
2023/11/11 01:44:43;;;;;;;9.27;2.47;;;;;;;12.65;73.69;100188.00;4931744;29;20067;-60
2023/11/11 01:47:10;;;;;;;9.00;2.25;;;;;;;12.70;73.15;100187.78;4947825;29;20056;-61
2023/11/11 01:49:38;;;;;;;9.07;2.10;;;;;;;12.72;73.14;100189.06;4963051;28;20059;-60
2023/11/11 01:52:06;;;;;;;7.05;2.05;;;;;;;12.34;73.62;100200.28;4947883;29;20380;-61
2023/11/11 01:54:37;;;;;;;9.70;2.50;;;;;;;12.48;73.89;100189.75;4934574;29;20060;-61
2023/11/11 01:57:06;;;;;;;9.98;1.98;;;;;;;12.74;73.04;100175.72;4943804;29;20052;-62
2023/11/11 01:59:35;;;;;;;9.95;2.40;;;;;;;12.60;72.69;100191.78;4932857;29;20059;-61
2023/11/11 02:02:03;;;;;;;10.90;2.33;;;;;;;12.15;74.42;100199.16;4946773;29;20043;-61
2023/11/11 02:04:30;;;;;;;8.93;2.15;;;;;;;12.50;73.84;100189.41;4946355;28;20071;-61
2023/11/11 02:06:58;;;;;;;11.20;2.83;;;;;;;12.55;73.47;100191.19;4931925;29;20052;-62
2023/11/11 02:09:26;;;;;;;8.20;2.10;;;;;;;12.26;74.48;100192.88;4932641;29;20055;-62
2023/11/11 02:11:56;;;;;;;7.05;2.10;;;;;;;12.25;74.96;100195.97;4933581;28;20059;-61
2023/11/11 02:14:24;;;;;;;7.60;2.05;;;;;;;12.68;73.92;100185.34;4946735;29;20056;-61
2023/11/11 02:16:51;;;;;;;10.27;2.67;;;;;;;12.08;76.20;100196.91;4932529;29;20086;-62
2023/11/11 02:19:18;;;;;;;6.45;1.90;;;;;;;12.43;74.20;100183.63;4941507;28;20047;-61
2023/11/11 02:21:47;;;;;;;7.25;1.95;;;;;;;12.27;74.93;100191.72;4932174;29;20052;-61
2023/11/11 02:24:16;;;;;;;10.10;2.15;;;;;;;12.43;74.17;100202.97;4932531;29;20056;-61
2023/11/11 02:26:43;;;;;;;7.25;1.90;;;;;;;12.21;75.09;100204.13;4946235;28;20064;-61
2023/11/11 02:29:10;;;;;;;8.15;2.25;;;;;;;12.48;74.33;100199.22;4931769;29;20066;-62
2023/11/11 02:31:38;;;;;;;7.00;2.25;;;;;;;12.48;73.81;100203.56;4936810;29;20048;-60
2023/11/11 02:34:05;;;;;;;9.25;2.30;;;;;;;12.47;73.82;100206.69;4968222;28;20510;-61
2023/11/11 02:36:33;;;;;;;9.15;2.33;;;;;;;12.53;73.77;100193.47;4936143;29;20051;-61
2023/11/11 02:39:00;;;;;;;6.90;1.80;;;;;;;12.46;74.12;100191.25;4947597;29;20760;-62
2023/11/11 02:41:27;;;;;;;9.07;2.10;;;;;;;12.60;73.65;100202.84;4938632;29;20055;-61
2023/11/11 02:43:55;;;;;;;8.02;1.67;;;;;;;12.48;73.72;100210.25;4935923;29;20056;-61
2023/11/11 02:46:22;;;;;;;5.75;2.05;;;;;;;12.04;75.81;100208.97;4937499;29;20075;-61
2023/11/11 02:48:49;;;;;;;6.25;1.90;;;;;;;11.27;77.51;100220.38;4967246;28;20056;-61
2023/11/11 02:51:16;;;;;;;9.57;1.85;;;;;;;11.79;77.01;100205.22;4936966;29;20047;-61
2023/11/11 02:53:43;;;;;;;6.78;1.92;;;;;;;12.22;75.36;100208.50;4936005;29;20059;-61
2023/11/11 02:56:11;;;;;;;4.63;1.90;;;;;;;12.45;74.69;100214.47;4937216;29;20078;-62
2023/11/11 02:58:38;;;;;;;7.13;2.28;;;;;;;12.61;73.92;100206.38;4935774;28;20431;-60
2023/11/11 03:01:05;;;;;;;7.07;1.90;;;;;;;12.59;73.42;100203.97;4935316;29;20051;-61
2023/11/11 03:03:34;;;;;;;8.10;1.95;;;;;;;12.64;73.55;100214.81;4967047;28;20059;-61
2023/11/11 03:06:03;;;;;;;5.65;1.80;;;;;;;12.58;73.10;100221.69;4936492;29;20067;-62
2023/11/11 03:08:30;;;;;;;5.93;1.98;;;;;;;12.63;72.92;100220.66;4936292;29;20063;-61
2023/11/11 03:10:57;;;;;;;9.13;2.15;;;;;;;12.63;73.13;100215.16;4935858;29;20054;-61
2023/11/11 03:13:24;;;;;;;6.82;2.03;;;;;;;12.67;72.88;100213.31;4951571;28;20063;-61
2023/11/11 03:15:52;;;;;;;6.88;1.77;;;;;;;12.58;72.78;100218.94;4950160;29;20055;-61
2023/11/11 03:18:19;;;;;;;6.18;1.95;;;;;;;12.75;72.96;100223.47;4949789;29;20059;-61
2023/11/11 03:20:46;;;;;;;8.00;1.80;;;;;;;12.74;72.53;100231.00;4966614;28;20051;-61
2023/11/11 03:23:13;;;;;;;7.93;1.77;;;;;;;12.45;73.02;100236.59;4936152;29;20052;-61
2023/11/11 03:25:41;;;;;;;6.93;1.70;;;;;;;12.58;73.17;100229.16;4934602;29;20055;-60
2023/11/11 03:28:08;;;;;;;8.05;1.85;;;;;;;12.56;73.09;100228.69;4965534;28;20047;-61
2023/11/11 03:30:36;;;;;;;6.90;1.80;;;;;;;12.58;72.85;100232.75;4965890;28;20050;-61
2023/11/11 03:33:03;;;;;;;6.50;1.80;;;;;;;12.49;72.73;100234.78;4950360;29;20048;-61
2023/11/11 03:35:30;;;;;;;8.60;1.98;;;;;;;12.55;72.80;100232.63;4935450;29;20052;-60
2023/11/11 03:37:57;;;;;;;7.22;1.90;;;;;;;12.69;72.83;100230.38;4950101;28;20056;-60
2023/11/11 03:40:25;;;;;;;7.88;1.90;;;;;;;12.60;72.60;100237.94;4977684;28;20495;-61
2023/11/11 03:42:52;;;;;;;9.85;2.00;;;;;;;12.73;72.29;100229.34;4953303;28;20067;-61
2023/11/11 03:45:19;;;;;;;7.35;1.58;;;;;;;12.61;71.86;100236.78;4953913;29;20048;-61
2023/11/11 03:47:52;;;;;;;6.10;1.85;;;;;;;12.12;73.11;100241.22;4955502;28;20051;-61
2023/11/11 03:50:19;;;;;;;8.30;1.52;;;;;;;12.01;73.99;100234.50;4950636;28;20052;-62
2023/11/11 03:52:46;;;;;;;8.70;2.67;;;;;;;12.06;74.76;100242.56;4935439;29;20054;-61
2023/11/11 03:55:14;;;;;;;8.52;2.42;;;;;;;12.35;72.74;100246.09;4965294;28;20058;-60
2023/11/11 03:57:41;;;;;;;7.28;1.77;;;;;;;12.20;73.15;100256.94;4933819;29;20066;-60
2023/11/11 04:00:16;;;;;;;8.15;1.85;;;;;;;12.24;73.50;100253.16;4949721;29;20040;-62
2023/11/11 04:02:45;;;;;;;8.75;1.70;;;;;;;12.05;72.57;100251.97;4933476;29;20147;-61
2023/11/11 04:05:16;;;;;;;6.82;1.42;;;;;;;11.91;73.94;100259.69;4949518;29;20063;-62
2023/11/11 04:07:46;;;;;;;9.63;2.22;;;;;;;12.26;73.80;100253.63;4949744;29;20131;-61
2023/11/11 04:10:17;;;;;;;5.50;1.58;;;;;;;12.47;72.10;100253.63;4935188;29;20051;-61
2023/11/11 04:12:45;;;;;;;8.25;1.40;;;;;;;12.50;71.90;100252.94;4949281;29;20055;-60
2023/11/11 04:15:13;;;;;;;5.82;1.73;;;;;;;12.63;71.60;100262.94;4934531;29;20063;-61
2023/11/11 04:17:44;;;;;;;6.13;1.75;;;;;;;12.66;71.50;100261.47;4933927;29;20052;-61
2023/11/11 04:20:12;;;;;;;5.78;1.80;;;;;;;12.75;70.84;100262.16;4933301;29;20056;-61
2023/11/11 04:22:40;;;;;;;6.57;1.52;;;;;;;12.72;70.79;100260.91;4933951;29;20063;-61
2023/11/11 04:25:09;;;;;;;8.13;1.88;;;;;;;12.75;70.53;100257.47;4933925;29;20063;-61
2023/11/11 04:27:37;;;;;;;7.07;1.60;;;;;;;12.59;71.10;100259.22;4945374;29;20051;-62
2023/11/11 04:30:06;;;;;;;7.03;1.67;;;;;;;12.54;71.05;100259.44;4933714;29;20387;-60
2023/11/11 04:32:36;;;;;;;6.00;1.55;;;;;;;12.52;70.71;100271.97;4934280;29;20043;-60
2023/11/11 04:35:03;;;;;;;4.03;1.33;;;;;;;12.47;70.60;100272.97;4933370;29;20526;-59
2023/11/11 04:37:31;;;;;;;7.22;1.92;;;;;;;12.48;71.48;100283.69;4940580;29;20058;-60
2023/11/11 04:39:58;;;;;;;9.82;2.05;;;;;;;12.62;71.09;100285.38;4938874;29;20051;-61
2023/11/11 04:42:26;;;;;;;10.23;1.45;;;;;;;12.40;70.75;100281.81;4948447;29;20044;-60
2023/11/11 04:44:54;;;;;;;8.23;2.30;;;;;;;11.83;73.11;100285.41;4934171;29;20520;-61
2023/11/11 04:47:21;;;;;;;9.80;1.80;;;;;;;11.44;74.52;100285.69;4948670;29;20630;-60
2023/11/11 04:49:49;;;;;;;9.35;2.22;;;;;;;11.68;74.40;100280.44;4934424;29;20680;-62
2023/11/11 04:52:16;;;;;;;8.38;1.98;;;;;;;11.83;73.49;100279.88;4934326;29;20051;-61
2023/11/11 04:54:43;;;;;;;5.22;1.83;;;;;;;12.00;73.22;100279.78;4933582;29;20059;-61
2023/11/11 04:57:11;;;;;;;6.90;1.90;;;;;;;12.30;71.92;100279.44;4916874;29;20062;-60
2023/11/11 04:59:38;;;;;;;9.48;1.95;;;;;;;11.91;72.06;100279.00;4964039;28;20063;-60
2023/11/11 05:02:06;;;;;;;8.43;2.35;;;;;;;11.13;74.16;100280.41;4930214;29;20052;-59
2023/11/11 05:04:33;;;;;;;9.63;1.90;;;;;;;11.09;74.42;100282.19;4933570;29;20171;-60
2023/11/11 05:07:00;;;;;;;7.43;1.73;;;;;;;11.15;76.27;100278.97;4932295;29;20059;-60
2023/11/11 05:09:28;;;;;;;7.00;2.00;;;;;;;11.12;76.94;100276.06;4949167;29;20048;-61
2023/11/11 05:11:55;;;;;;;9.15;1.98;;;;;;;11.17;75.03;100287.72;4934421;29;20058;-61
2023/11/11 05:14:23;;;;;;;10.52;2.17;;;;;;;11.35;75.99;100283.75;4963869;28;20086;-61
2023/11/11 05:16:54;;;;;;;8.05;2.40;;;;;;;11.56;74.70;100297.63;4933950;29;20059;-60
2023/11/11 05:19:21;;;;;;;5.85;1.85;;;;;;;11.41;75.15;100289.91;4934439;29;20416;-61
2023/11/11 05:21:49;;;;;;;11.27;2.33;;;;;;;10.61;75.89;100290.69;4933375;29;20103;-61
2023/11/11 05:24:16;;;;;;;11.23;2.60;;;;;;;11.21;76.92;100296.94;4932757;29;20059;-61
2023/11/11 05:26:43;;;;;;;7.85;1.77;;;;;;;11.35;74.93;100286.53;4932385;29;20063;-60
2023/11/11 05:29:11;;;;;;;10.23;2.08;;;;;;;11.37;73.99;100291.69;4932016;29;20056;-61
2023/11/11 05:31:38;;;;;;;13.00;2.00;;;;;;;11.68;74.10;100297.00;4933400;29;20058;-61
2023/11/11 05:34:05;;;;;;;10.60;1.60;;;;;;;11.82;72.83;100295.63;4933311;29;20059;-62
2023/11/11 05:36:33;;;;;;;9.35;2.40;;;;;;;11.50;74.96;100296.22;4948201;29;20047;-62
2023/11/11 05:39:01;;;;;;;8.27;1.90;;;;;;;11.59;73.56;100304.47;4934099;29;20879;-60
2023/11/11 05:41:31;;;;;;;8.38;2.13;;;;;;;12.04;72.13;100300.06;4949598;29;20060;-61
2023/11/11 05:43:58;;;;;;;6.18;1.48;;;;;;;12.04;72.45;100302.81;4945011;29;20043;-62
2023/11/11 05:46:25;;;;;;;9.45;2.30;;;;;;;11.94;71.80;100298.47;4933298;29;20063;-61
2023/11/11 05:48:53;;;;;;;10.57;2.05;;;;;;;12.10;71.77;100299.53;4931782;29;20047;-62
2023/11/11 05:51:21;;;;;;;10.60;2.08;;;;;;;12.20;70.95;100309.41;4933242;29;20054;-61
2023/11/11 05:53:48;;;;;;;10.10;2.20;;;;;;;12.12;70.54;100310.25;4948505;29;20043;-60
2023/11/11 05:56:16;;;;;;;10.88;2.28;;;;;;;11.95;71.91;100308.41;4934661;28;20055;-60
2023/11/11 05:58:44;;;;;;;9.10;2.20;;;;;;;11.52;72.68;100323.47;4933440;29;20063;-61
2023/11/11 06:01:11;;;;;;;7.80;2.35;;;;;;;11.75;72.85;100324.88;4933005;29;20059;-61
2023/11/11 06:03:38;;;;;;;7.18;2.00;;;;;;;11.90;72.14;100322.38;4933842;29;20055;-61
2023/11/11 06:06:06;;;;;;;9.93;2.10;;;;;;;11.88;72.71;100324.66;4934843;29;20055;-61
2023/11/11 06:08:33;;;;;;;8.50;2.17;;;;;;;11.96;72.01;100323.78;4937553;29;20063;-61
2023/11/11 06:11:01;;;;;;;6.18;1.77;;;;;;;11.97;71.62;100322.69;4935798;29;20047;-61
2023/11/11 06:13:29;;;;;;;10.63;2.00;;;;;;;12.10;71.16;100331.88;4966602;28;20055;-60
2023/11/11 06:15:56;;;;;;;12.57;2.35;;;;;;;12.22;70.25;100340.25;4937841;28;20051;-61
2023/11/11 06:18:24;;;;;;;11.30;2.08;;;;;;;11.58;69.73;100339.50;4937398;29;20054;-61
2023/11/11 06:20:52;;;;;;;8.35;2.47;;;;;;;11.67;72.29;100331.22;4951524;28;20059;-62
2023/11/11 06:23:20;;;;;;;9.00;2.17;;;;;;;11.02;72.54;100340.59;4952042;28;20051;-64
2023/11/11 06:26:07;;;;;;;8.80;2.33;;;;;;;11.26;75.68;100340.88;4941286;29;20115;-60
2023/11/11 06:28:34;;;;;;;10.70;2.30;;;;;;;11.59;73.31;100340.31;4935115;29;20062;-61
2023/11/11 06:31:02;;;;;;;12.13;2.17;;;;;;;11.29;73.71;100344.94;4943143;29;20064;-60
2023/11/11 06:33:29;;;;;;;10.20;1.90;;;;;;;11.89;72.29;100342.81;4934919;29;20048;-60
2023/11/11 06:35:58;;;;;;;10.07;2.15;;;;;;;11.26;73.25;100329.84;4934010;29;20059;-60
2023/11/11 06:38:26;;;;;;;7.13;2.05;;;;;;;11.25;74.68;100332.94;4934109;29;20059;-61
2023/11/11 06:40:53;;;;;;;9.73;2.42;;;;;;;11.89;73.10;100342.81;4933689;29;20066;-63
2023/11/11 06:43:20;;;;;;;9.10;1.90;;;;;;;11.87;72.45;100345.09;4933382;29;20052;-62
2023/11/11 06:45:47;;;;;;;9.80;2.10;;;;;;;11.38;73.30;100342.16;4936379;29;20063;-62
2023/11/11 06:48:16;;;;;;;8.77;2.25;;;;;;;11.06;73.52;100351.75;4934816;29;20067;-62
2023/11/11 06:50:43;;;;;;;11.40;2.38;;;;;;;10.50;77.44;100349.13;4924385;29;20075;-62
2023/11/11 06:53:11;;;;;;;9.18;2.80;;;;;;;11.08;77.14;100347.56;4950211;28;20048;-62
2023/11/11 06:55:39;;;;;;;11.20;2.25;;;;;;;11.51;74.39;100352.16;4957186;28;20063;-61
2023/11/11 06:58:06;;;;;;;9.13;2.40;;;;;;;11.55;73.86;100355.91;4936359;29;20515;-62
2023/11/11 07:00:34;;;;;;;9.18;2.47;;;;;;;12.16;71.57;100363.66;4947665;28;20052;-63
2023/11/11 07:03:02;;;;;;;15.00;2.50;;;;;;;12.20;70.25;100357.13;4929709;29;20055;-62
2023/11/11 07:05:30;;;;;;;11.45;2.47;;;;;;;12.11;71.21;100353.63;4967282;28;20064;-61
2023/11/11 07:07:57;;;;;;;7.53;2.25;;;;;;;11.50;70.88;100359.66;4940982;29;20683;-62
2023/11/11 07:10:24;;;;;;;9.50;2.65;;;;;;;12.13;70.73;100364.34;4936002;29;20067;-62
2023/11/11 07:12:51;;;;;;;7.07;1.92;;;;;;;12.29;70.16;100370.91;4936353;29;20496;-62
2023/11/11 07:15:20;;;;;;;11.40;2.20;;;;;;;12.22;69.91;100363.13;4936251;29;20059;-62
2023/11/11 07:17:48;;;;;;;9.18;2.03;;;;;;;11.98;69.90;100359.34;4936423;29;20047;-61
2023/11/11 07:20:21;;;;;;;9.55;2.33;;;;;;;12.22;70.69;100362.34;4936302;29;20134;-61
2023/11/11 07:22:49;;;;;;;10.75;2.08;;;;;;;12.50;68.75;100379.25;4936297;29;20062;-62
2023/11/11 07:25:17;;;;;;;10.85;2.63;;;;;;;12.14;69.95;100360.41;4936062;29;20057;-63
2023/11/11 07:27:44;;;;;;;12.45;2.40;;;;;;;12.44;69.71;100375.84;4935006;29;20074;-62
2023/11/11 07:30:12;;;;;;;8.23;1.98;;;;;;;12.01;68.13;100384.34;4935837;29;20047;-62
2023/11/11 07:32:40;;;;;;;8.05;2.10;;;;;;;10.40;76.69;100396.25;4934774;29;20816;-61
2023/11/11 07:35:26;;;;;;;7.22;1.88;;;;;;;10.43;77.31;100388.16;4935256;29;20059;-63
2023/11/11 07:37:54;;;;;;;12.32;2.33;;;;;;;10.54;77.13;100395.00;4946438;29;20435;-63
2023/11/11 07:40:24;;;;;;;8.48;2.42;;;;;;;10.86;76.09;100400.06;4943047;29;20063;-63
2023/11/11 07:42:53;;;;;;;11.73;2.38;;;;;;;11.02;75.96;100408.66;4935383;29;20091;-62
2023/11/11 07:45:23;;;;;;;8.88;2.28;;;;;;;11.85;74.42;100418.34;4934420;29;20054;-63
2023/11/11 07:47:51;;;;;;;10.70;2.72;;;;;;;11.24;73.95;100417.56;4935810;29;20195;-61
2023/11/11 07:50:20;;;;;;;10.00;2.33;;;;;;;11.71;74.71;100415.78;4932515;29;20051;-63
2023/11/11 07:52:48;;;;;;;13.47;2.40;;;;;;;10.77;75.90;100420.47;4965796;28;20047;-63
2023/11/11 07:55:16;;;;;;;8.90;2.05;;;;;;;11.13;75.98;100426.50;4981253;28;20412;-62
2023/11/11 07:57:43;;;;;;;7.18;1.90;;;;;;;10.14;80.92;100434.72;4934861;29;20059;-62
2023/11/11 08:00:18;;;;;;;7.88;2.17;;;;;;;10.09;80.88;100429.34;4930879;29;20048;-64
2023/11/11 08:02:49;;;;;;;10.02;2.22;;;;;;;10.36;82.81;100439.31;4917140;29;20420;-64
2023/11/11 08:05:16;;;;;;;;;;;;;;;11.14;79.64;100437.19;4932631;29;20048;-64
2023/11/11 08:07:44;;;;;;;11.68;2.20;;;;;;;11.99;76.12;100436.31;4936330;29;19927;-63
2023/11/11 08:10:19;;;;;;;11.38;2.28;;;;;;;11.80;75.30;100432.31;4934595;29;20059;-64
2023/11/11 08:12:46;;;;;;;10.10;2.13;;;;;;;12.25;73.91;100439.00;4941914;29;20043;-63
2023/11/11 08:15:13;;;;;;;10.48;2.08;;;;;;;12.26;73.72;100446.13;4936126;29;20071;-64
2023/11/11 08:17:41;;;;;;;10.85;2.47;;;;;;;12.06;74.50;100441.34;4935973;29;20059;-63
2023/11/11 08:20:11;;;;;;;11.73;2.13;;;;;;;12.41;73.37;100438.09;4934798;29;20058;-63
2023/11/11 08:22:42;;;;;;;10.57;1.98;;;;;;;12.44;73.34;100439.38;4935862;29;20135;-64
2023/11/11 08:25:12;;;;;;;14.35;2.40;;;;;;;12.77;72.23;100431.22;4935432;29;20048;-63
2023/11/11 08:27:43;;;;;;;7.38;2.30;;;;;;;12.95;71.33;100435.50;4935000;29;20067;-63
2023/11/11 08:30:11;;;;;;;9.13;2.35;;;;;;;13.10;70.49;100423.88;4934629;29;20052;-63
2023/11/11 08:32:42;;;;;;;8.80;2.20;;;;;;;13.04;70.32;100425.25;4935436;29;20696;-63
2023/11/11 08:35:15;;;;;;;12.68;2.97;;;;;;;13.20;69.64;100431.75;4933813;29;20040;-63
2023/11/11 08:37:43;;;;;;;9.07;2.40;;;;;;;12.22;71.85;100439.66;4971805;28;20056;-64
2023/11/11 08:40:11;;;;;;;12.38;2.50;;;;;;;12.43;73.25;100435.81;4944768;29;20077;-65
2023/11/11 08:42:39;;;;;;;9.70;2.63;;;;;;;12.90;72.01;100435.72;4952386;29;20058;-64
2023/11/11 08:45:09;;;;;;;10.27;2.45;;;;;;;12.64;72.28;100430.31;4948863;29;20507;-64
2023/11/11 08:47:37;;;;;;;8.13;2.28;;;;;;;12.78;72.51;100430.09;4934223;29;20495;-63
2023/11/11 08:50:09;;;;;;;7.05;2.20;;;;;;;13.09;71.38;100420.28;4951545;28;20059;-64
2023/11/11 08:52:43;;;;;;;9.88;2.10;;;;;;;12.59;72.23;100426.97;4934340;29;20688;-64
2023/11/11 08:55:11;;;;;;;8.75;2.25;;;;;;;12.56;72.02;100430.38;4934978;29;20079;-64
2023/11/11 08:57:38;;;;;;;14.00;2.38;;;;;;;12.63;71.97;100433.44;4934221;29;20051;-63
2023/11/11 09:00:08;;;;;;;10.95;2.50;;;;;;;11.83;75.13;100442.69;4934729;29;20048;-63
2023/11/11 09:02:35;;;;;;;12.85;2.78;;;;;;;12.29;75.85;100440.75;4934436;29;20060;-64
2023/11/11 09:05:04;;;;;;;9.15;2.60;;;;;;;11.70;75.90;100447.25;4963128;28;20051;-63
2023/11/11 09:07:34;;;;;;;7.45;2.20;;;;;;;12.18;76.22;100445.03;4948722;29;20056;-63
2023/11/11 09:10:03;;;;;;;9.07;2.03;;;;;;;11.90;75.43;100438.28;4934562;29;20048;-65
2023/11/11 09:12:30;;;;;;;7.32;2.15;;;;;;;11.57;76.83;100439.97;4933233;29;20062;-63
2023/11/11 09:14:58;;;;;;;10.23;2.40;;;;;;;12.27;76.27;100442.22;4933675;29;20144;-63
2023/11/11 09:17:26;;;;;;;9.57;2.05;;;;;;;12.51;73.46;100436.91;4932136;29;20082;-64
2023/11/11 09:19:53;;;;;;;9.25;2.17;;;;;;;11.84;74.69;100445.13;4933762;29;20047;-64
2023/11/11 09:22:20;;;;;;;11.07;2.70;;;;;;;12.34;75.49;100443.31;4948418;29;20122;-63
2023/11/11 09:24:48;;;;;;;7.40;2.10;;;;;;;11.97;76.44;100435.84;4933238;29;20447;-64
2023/11/11 09:27:16;;;;;;;9.55;2.85;;;;;;;12.74;73.92;100431.91;4933686;29;20547;-64
2023/11/11 09:29:43;;;;;;;8.77;2.40;;;;;;;12.97;72.27;100428.47;4933427;29;20059;-63
2023/11/11 09:32:11;;;;;;;12.25;2.83;;;;;;;12.75;73.60;100428.00;4933996;29;20047;-64
2023/11/11 09:34:43;;;;;;;9.05;2.20;;;;;;;13.02;71.95;100430.28;4932818;29;20094;-64
2023/11/11 09:37:10;;;;;;;7.80;2.10;;;;;;;12.75;72.27;100428.81;4938115;29;20067;-64
2023/11/11 09:39:38;;;;;;;11.65;2.38;;;;;;;12.99;72.26;100431.72;4941158;29;20089;-63
2023/11/11 09:42:07;;;;;;;8.13;2.47;;;;;;;12.81;70.93;100433.00;4946645;29;20039;-60
2023/11/11 09:44:39;;;;;;;8.43;1.92;;;;;;;12.00;74.26;100426.06;4933339;29;20048;-62
2023/11/11 09:47:14;;;;;;;9.40;2.38;;;;;;;11.92;75.40;100424.16;4963956;28;20083;-61
2023/11/11 09:49:42;;;;;;;14.65;2.50;;;;;;;11.49;77.68;100432.47;4933725;29;20569;-62
2023/11/11 09:52:12;;;;;;;9.25;2.20;;;;;;;11.74;77.27;100434.44;4934329;28;20062;-61
2023/11/11 09:54:42;;;;;;;7.65;2.30;;;;;;;12.10;77.17;100439.53;4934279;29;20581;-62
2023/11/11 09:57:10;;;;;;;11.30;2.63;;;;;;;12.08;73.24;100434.31;4948513;29;20051;-62
2023/11/11 09:59:39;;;;;;;7.53;1.88;;;;;;;11.53;76.98;100438.16;4963348;28;20471;-61
2023/11/11 10:02:09;;;;;;;7.22;1.70;;;;;;;11.60;76.56;100435.72;4932676;29;20056;-61
2023/11/11 10:04:39;;;;;;;;;;;;;;;12.03;76.50;100442.00;4932364;29;20051;-62
2023/11/11 10:07:07;;;;;;;6.68;2.05;;;;;;;12.59;74.30;100438.03;4980859;28;19934;-62
2023/11/11 10:09:36;;;;;;;8.15;1.88;;;;;;;12.86;73.13;100437.53;4931391;29;20664;-62
2023/11/11 10:12:04;;;;;;;12.00;2.28;;;;;;;12.50;72.69;100443.56;4934009;29;20160;-64
2023/11/11 10:14:33;;;;;;;9.77;2.20;;;;;;;12.93;73.18;100429.50;4978855;28;20063;-61
2023/11/11 10:17:03;;;;;;;11.75;2.20;;;;;;;12.85;71.17;100442.22;4932386;29;20088;-62
2023/11/11 10:19:31;;;;;;;8.32;2.05;;;;;;;13.31;71.08;100444.84;4933115;29;20051;-61
2023/11/11 10:21:59;;;;;;;8.80;2.10;;;;;;;13.42;70.36;100428.66;4932791;29;20047;-61
2023/11/11 10:24:26;;;;;;;9.35;1.92;;;;;;;13.51;69.81;100432.16;4932828;29;20052;-62
2023/11/11 10:26:54;;;;;;;9.93;2.10;;;;;;;13.46;68.31;100430.41;4927415;29;20417;-62
2023/11/11 10:29:21;;;;;;;6.65;1.80;;;;;;;13.11;69.33;100442.09;4933179;29;20527;-61
2023/11/11 10:31:49;;;;;;;7.25;2.03;;;;;;;13.10;71.99;100437.69;4932471;29;20055;-67
2023/11/11 10:34:16;;;;;;;8.48;2.50;;;;;;;12.60;69.74;100447.91;4933814;29;20059;-64
2023/11/11 10:36:45;;;;;;;7.25;1.88;;;;;;;12.85;71.87;100449.72;4964829;28;20056;-63
2023/11/11 10:39:12;;;;;;;11.00;2.17;;;;;;;12.54;72.19;100450.06;4953461;28;20055;-64
2023/11/11 10:41:40;;;;;;;8.57;2.13;;;;;;;12.69;71.27;100452.28;4933233;29;20392;-63
2023/11/11 10:44:08;;;;;;;10.10;2.28;;;;;;;13.06;72.35;100445.84;4930385;29;20066;-64
2023/11/11 10:46:36;;;;;;;10.40;2.08;;;;;;;12.86;71.18;100449.41;4933379;29;20052;-63
2023/11/11 10:49:08;;;;;;;7.35;1.92;;;;;;;12.25;73.43;100444.50;4952603;28;20499;-64
2023/11/11 10:51:35;;;;;;;8.07;1.80;;;;;;;12.58;74.15;100439.97;4935785;28;20062;-64
2023/11/11 10:54:03;;;;;;;7.78;2.58;;;;;;;13.36;70.74;100441.88;4935810;29;20059;-64
2023/11/11 10:56:33;;;;;;;7.85;1.98;;;;;;;13.25;71.26;100435.13;4967830;28;20040;-64
2023/11/11 10:59:05;;;;;;;8.15;2.03;;;;;;;13.16;70.89;100430.84;4934634;29;20519;-65
2023/11/11 11:01:35;;;;;;;13.23;2.47;;;;;;;12.98;71.44;100440.34;4933979;29;20055;-64
2023/11/11 11:04:04;;;;;;;9.77;2.17;;;;;;;12.46;71.22;100435.13;4935422;29;20055;-65
2023/11/11 11:06:43;;;;;;;10.10;2.30;;;;;;;11.97;74.62;100430.31;4935673;29;20052;-63
2023/11/11 11:09:38;;;;;;;10.50;2.13;;;;;;;12.40;75.24;100425.44;4949928;28;20447;-63
2023/11/11 11:12:18;;;;;;;10.77;2.13;;;;;;;12.50;73.52;100426.19;4927343;29;20064;-63
2023/11/11 11:14:51;;;;;;;6.97;1.58;;;;;;;12.07;73.74;100427.19;4935405;29;20063;-62
2023/11/11 11:17:18;;;;;;;5.70;1.83;;;;;;;11.86;74.38;100418.00;4939260;29;20055;-63
2023/11/11 11:19:53;;;;;;;7.05;2.03;;;;;;;12.08;74.63;100417.75;4937303;29;20117;-63
2023/11/11 11:22:24;;;;;;;7.18;2.03;;;;;;;12.63;73.13;100414.91;4918205;29;20051;-65
2023/11/11 11:24:51;;;;;;;7.30;1.90;;;;;;;13.19;70.72;100410.78;4936530;29;20052;-63
2023/11/11 11:27:18;;;;;;;11.50;2.60;;;;;;;13.83;69.50;100411.94;4934416;29;20074;-63
2023/11/11 11:29:46;;;;;;;10.77;2.53;;;;;;;13.34;67.41;100405.44;4933198;29;20070;-61